Time;durP1;ratioP1;P1;durP2;ratioP2;P2;SDS_P1;SDS_P2;PMS_P1;PMS_P2;Temp;Humidity;BMP_temperature;BMP_pressure;BME280_temperature;BME280_humidity;BME280_pressure;Samples;Min_cycle;Max_cycle;Signal;HPM_P1;HPM_P2
2024/02/22 00:01:08;;;;;;;;;;;14.60;52.30;;;;;;4977532;28;20367;-67
2024/02/22 00:03:36;;;;;;;;;;;14.60;52.10;;;;;;4983221;28;20459;-67
2024/02/22 00:06:05;;;;;;;;;;;14.60;52.10;;;;;;4970294;28;19936;-67
2024/02/22 00:08:33;;;;;;;;;;;14.60;52.20;;;;;;4975460;28;20040;-66
2024/02/22 00:11:04;;;;;;;;;;;14.60;52.10;;;;;;4979971;28;19930;-67
2024/02/22 00:13:34;;;;;;;;;;;14.50;51.90;;;;;;4977463;28;19969;-66
2024/02/22 00:16:03;;;;;;;;;;;14.50;52.00;;;;;;4974971;28;19981;-69
2024/02/22 00:18:32;;;;;;;;;;;14.40;52.30;;;;;;4968800;28;20439;-65
2024/02/22 00:21:01;;;;;;;;;;;14.40;52.00;;;;;;4975904;28;20404;-67
2024/02/22 00:23:29;;;;;;;;;;;14.40;52.10;;;;;;4984711;28;19930;-68
2024/02/22 00:25:57;;;;;;;;;;;14.40;52.10;;;;;;4970583;28;20057;-67
2024/02/22 00:28:25;;;;;;;;;;;14.40;52.20;;;;;;4979903;28;19984;-67
2024/02/22 00:30:55;;;;;;;;;;;14.40;52.20;;;;;;4973483;28;19930;-66
2024/02/22 00:33:23;;;;;;;;;;;14.40;52.20;;;;;;4971757;28;19934;-67
2024/02/22 00:35:51;;;;;;;;;;;14.40;52.20;;;;;;4970752;28;19926;-66
2024/02/22 00:38:19;;;;;;;;;;;14.40;52.20;;;;;;5027701;28;19929;-66
2024/02/22 00:40:47;;;;;;;;;;;14.40;52.20;;;;;;5013750;28;20010;-67
2024/02/22 00:43:16;;;;;;;;;;;14.40;52.20;;;;;;5007684;28;19939;-66
2024/02/22 00:45:44;;;;;;;;;;;14.40;52.30;;;;;;5020373;28;19932;-67
2024/02/22 00:48:13;;;;;;;;;;;14.30;52.00;;;;;;5005000;28;20392;-68
2024/02/22 00:50:42;;;;;;;;;;;14.30;52.10;;;;;;5030571;28;19929;-67
2024/02/22 00:53:10;;;;;;;;;;;14.20;52.20;;;;;;5018520;28;19929;-68
2024/02/22 00:55:39;;;;;;;;;;;14.20;52.20;;;;;;5014539;28;19930;-65
2024/02/22 00:58:07;;;;;;;;;;;14.20;52.20;;;;;;5011962;28;19960;-68
2024/02/22 01:00:36;;;;;;;;;;;14.20;52.30;;;;;;5015376;28;20399;-65
2024/02/22 01:03:06;;;;;;;;;;;14.20;52.20;;;;;;5010991;28;20571;-68
2024/02/22 01:05:35;;;;;;;;;;;14.20;52.10;;;;;;5014651;28;19940;-66
2024/02/22 01:08:04;;;;;;;;;;;14.20;52.10;;;;;;5006854;28;19936;-67
2024/02/22 01:10:33;;;;;;;;;;;14.20;52.20;;;;;;5007543;28;19940;-66
2024/02/22 01:13:02;;;;;;;;;;;14.20;52.20;;;;;;5008267;28;19939;-66
2024/02/22 01:15:30;;;;;;;;;;;14.10;52.10;;;;;;5015536;28;19936;-66
2024/02/22 01:18:02;;;;;;;;;;;14.10;52.10;;;;;;5007418;28;20023;-66
2024/02/22 01:20:30;;;;;;;;;;;14.10;52.10;;;;;;5016781;28;20011;-66
2024/02/22 01:23:00;;;;;;;;;;;14.00;52.00;;;;;;5015121;28;19929;-67
2024/02/22 01:25:28;;;;;;;;;;;14.00;52.10;;;;;;5022102;28;19972;-66
2024/02/22 01:27:57;;;;;;;;;;;14.00;52.20;;;;;;5014381;28;19943;-68
2024/02/22 01:30:25;;;;;;;;;;;13.90;52.20;;;;;;5021287;28;20666;-66
2024/02/22 01:32:53;;;;;;;;;;;13.90;52.20;;;;;;5022671;28;19929;-67
2024/02/22 01:35:21;;;;;;;;;;;13.80;52.20;;;;;;5018380;28;19947;-66
2024/02/22 01:37:49;;;;;;;;;;;13.80;52.30;;;;;;5015694;28;19936;-66
2024/02/22 01:40:19;;;;;;;;;;;13.80;52.30;;;;;;5010893;28;19936;-67
2024/02/22 01:42:48;;;;;;;;;;;13.80;52.30;;;;;;5018488;28;20008;-66
2024/02/22 01:45:16;;;;;;;;;;;13.80;52.30;;;;;;5021006;28;20566;-66
2024/02/22 01:47:44;;;;;;;;;;;13.80;52.30;;;;;;5022260;28;19960;-66
2024/02/22 01:50:12;;;;;;;;;;;13.70;52.30;;;;;;5013483;28;20277;-67
2024/02/22 01:52:42;;;;;;;;;;;13.70;52.40;;;;;;5017738;28;20283;-65
2024/02/22 01:55:11;;;;;;;;;;;13.70;52.30;;;;;;5019194;28;19936;-66
2024/02/22 01:57:41;;;;;;;;;;;13.60;52.30;;;;;;5022923;28;20331;-67
2024/02/22 02:00:15;;;;;;;;;;;13.60;52.30;;;;;;5005911;28;20661;-66
2024/02/22 02:02:43;;;;;;;;;;;13.60;52.30;;;;;;5019242;28;20474;-66
2024/02/22 02:05:11;;;;;;;;;;;13.60;52.40;;;;;;5015905;28;20023;-66
2024/02/22 02:07:40;;;;;;;;;;;13.60;52.40;;;;;;5020300;28;19929;-66
2024/02/22 02:10:09;;;;;;;;;;;13.60;52.30;;;;;;5006786;28;19937;-66
2024/02/22 02:12:38;;;;;;;;;;;13.60;52.50;;;;;;5012418;28;19937;-66
2024/02/22 02:15:08;;;;;;;;;;;13.50;52.30;;;;;;5011510;28;19933;-67
2024/02/22 02:17:36;;;;;;;;;;;13.50;52.30;;;;;;5013855;28;19929;-66
2024/02/22 02:20:08;;;;;;;;;;;13.50;52.30;;;;;;5010018;28;19941;-66
2024/02/22 02:22:49;;;;;;;;;;;13.40;52.30;;;;;;5012537;28;19929;-68
2024/02/22 02:25:18;;;;;;;;;;;13.40;52.40;;;;;;5018980;28;20350;-66
2024/02/22 02:27:47;;;;;;;;;;;13.20;52.50;;;;;;5013977;28;19937;-66
2024/02/22 02:30:15;;;;;;;;;;;13.10;52.50;;;;;;5007961;28;19929;-67
2024/02/22 02:32:43;;;;;;;;;;;13.00;52.60;;;;;;5013771;28;19933;-68
2024/02/22 02:35:12;;;;;;;;;;;13.00;52.70;;;;;;5020252;28;19932;-67
2024/02/22 02:37:40;;;;;;;;;;;13.00;52.80;;;;;;5021637;28;19935;-66
2024/02/22 02:40:08;;;;;;;;;;;13.00;52.80;;;;;;5017497;28;20020;-67
2024/02/22 02:42:38;;;;;;;;;;;13.00;52.90;;;;;;5010978;28;20987;-66
2024/02/22 02:45:06;;;;;;;;;;;12.90;52.80;;;;;;5011110;28;19930;-66
2024/02/22 02:47:34;;;;;;;;;;;13.00;52.80;;;;;;5012719;28;19956;-64
2024/02/22 02:50:02;;;;;;;;;;;13.00;52.90;;;;;;5009583;28;20363;-66
2024/02/22 02:52:31;;;;;;;;;;;13.00;52.80;;;;;;5018861;28;20007;-67
2024/02/22 02:54:59;;;;;;;;;;;13.00;52.70;;;;;;5010194;28;19965;-66
2024/02/22 02:57:27;;;;;;;;;;;13.00;52.70;;;;;;5018493;28;19940;-65
2024/02/22 02:59:56;;;;;;;;;;;13.10;53.00;;;;;;5010183;28;19955;-65
2024/02/22 03:02:25;;;;;;;;;;;12.70;52.60;;;;;;5012203;28;19997;-66
2024/02/22 03:04:53;;;;;;;;;;;13.10;52.80;;;;;;5004279;28;19936;-66
2024/02/22 03:07:21;;;;;;;;;;;13.20;52.70;;;;;;5017093;28;19929;-66
2024/02/22 03:09:50;;;;;;;;;;;13.30;52.70;;;;;;5015792;28;19932;-64
2024/02/22 03:12:18;;;;;;;;;;;13.30;52.70;;;;;;5009020;28;20368;-65
2024/02/22 03:14:46;;;;;;;;;;;13.40;52.60;;;;;;5009820;28;19963;-66
2024/02/22 03:17:15;;;;;;;;;;;13.40;52.60;;;;;;5012755;28;19929;-65
2024/02/22 03:19:43;;;;;;;;;;;13.40;52.50;;;;;;5013042;28;19949;-66
2024/02/22 03:22:13;;;;;;;;;;;13.00;52.60;;;;;;5012549;28;19929;-66
2024/02/22 03:24:41;;;;;;;;;;;13.30;52.60;;;;;;5012851;28;19951;-66
2024/02/22 03:27:10;;;;;;;;;;;13.30;52.80;;;;;;5009635;28;20575;-65
2024/02/22 03:29:39;;;;;;;;;;;13.30;52.60;;;;;;5020776;28;20023;-66
2024/02/22 03:32:07;;;;;;;;;;;13.40;52.70;;;;;;5010639;28;19928;-65
2024/02/22 03:34:37;;;;;;;;;;;13.40;52.70;;;;;;5014090;28;20698;-65
2024/02/22 03:37:05;;;;;;;;;;;13.50;52.70;;;;;;5023854;28;20169;-68
2024/02/22 03:39:33;;;;;;;;;;;13.50;52.60;;;;;;5014623;28;19936;-66
2024/02/22 03:42:02;;;;;;;;;;;13.50;52.60;;;;;;5013272;28;20060;-65
2024/02/22 03:44:30;;;;;;;;;;;13.50;52.60;;;;;;5005764;28;20024;-66
2024/02/22 03:46:59;;;;;;;;;;;13.60;52.60;;;;;;5014860;28;19929;-66
2024/02/22 03:49:27;;;;;;;;;;;13.70;52.70;;;;;;5007378;28;19933;-69
2024/02/22 03:51:56;;;;;;;;;;;13.80;52.60;;;;;;5015121;28;20184;-66
2024/02/22 03:54:25;;;;;;;;;;;13.80;52.50;;;;;;5015259;28;19936;-66
2024/02/22 03:56:54;;;;;;;;;;;13.80;52.40;;;;;;5016386;28;19932;-65
2024/02/22 03:59:23;;;;;;;;;;;13.90;52.50;;;;;;5017792;28;20014;-66
2024/02/22 04:01:52;;;;;;;;;;;13.90;52.60;;;;;;5005169;28;20387;-65
2024/02/22 04:04:20;;;;;;;;;;;14.00;52.50;;;;;;5017913;28;19936;-66
2024/02/22 04:06:49;;;;;;;;;;;14.00;52.50;;;;;;5013313;28;19936;-66
2024/02/22 04:09:18;;;;;;;;;;;14.00;52.50;;;;;;5021443;28;19951;-67
2024/02/22 04:11:46;;;;;;;;;;;14.00;52.40;;;;;;5007318;28;20019;-68
2024/02/22 04:14:14;;;;;;;;;;;14.10;52.40;;;;;;5018159;28;19933;-66
2024/02/22 04:16:43;;;;;;;;;;;14.10;52.40;;;;;;5014568;28;19932;-67
2024/02/22 04:19:11;;;;;;;;;;;14.10;53.00;;;;;;5016085;28;19979;-66
2024/02/22 04:21:40;;;;;;;;;;;14.10;52.30;;;;;;5018552;28;20012;-68
2024/02/22 04:24:08;;;;;;;;;;;14.10;52.40;;;;;;5005566;28;19955;-65
2024/02/22 04:26:46;;;;;;;;;;;14.20;52.40;;;;;;5015050;28;19936;-67
2024/02/22 04:29:14;;;;;;;;;;;14.20;52.30;;;;;;5008680;28;19939;-67
2024/02/22 04:31:44;;;;;;;;;;;14.20;52.20;;;;;;5013278;28;19929;-69
2024/02/22 04:34:12;;;;;;;;;;;14.20;52.20;;;;;;5007548;28;19934;-65
2024/02/22 04:36:41;;;;;;;;;;;14.20;52.30;;;;;;5017043;28;19937;-66
2024/02/22 04:39:10;;;;;;;;;;;14.20;52.30;;;;;;5010667;28;19925;-67
2024/02/22 04:41:40;;;;;;;;;;;14.30;52.40;;;;;;5014268;28;19932;-66
2024/02/22 04:44:09;;;;;;;;;;;14.30;52.30;;;;;;5013173;28;19944;-66
2024/02/22 04:46:37;;;;;;;;;;;14.30;52.20;;;;;;5005471;28;20035;-67
2024/02/22 04:49:06;;;;;;;;;;;14.30;52.10;;;;;;5015837;28;19929;-67
2024/02/22 04:51:34;;;;;;;;;;;14.20;52.10;;;;;;5009633;28;20096;-67
2024/02/22 04:54:03;;;;;;;;;;;14.20;52.20;;;;;;5014555;28;20477;-65
2024/02/22 04:56:31;;;;;;;;;;;14.10;52.20;;;;;;5011910;28;19979;-66
2024/02/22 04:59:01;;;;;;;;;;;14.10;52.30;;;;;;5019064;28;20031;-66
2024/02/22 05:01:30;;;;;;;;;;;14.00;52.20;;;;;;5015595;28;20391;-65
2024/02/22 05:03:58;;;;;;;;;;;14.00;52.30;;;;;;5018064;28;20341;-68
2024/02/22 05:06:26;;;;;;;;;;;13.90;52.30;;;;;;5010949;28;19988;-67
2024/02/22 05:08:54;;;;;;;;;;;13.80;52.30;;;;;;5015015;28;19929;-66
2024/02/22 05:11:23;;;;;;;;;;;13.80;52.40;;;;;;5017868;28;20020;-66
2024/02/22 05:13:53;;;;;;;;;;;13.90;52.60;;;;;;5017871;28;19968;-67
2024/02/22 05:16:23;;;;;;;;;;;13.90;52.50;;;;;;5010974;28;19929;-66
2024/02/22 05:18:51;;;;;;;;;;;14.00;52.50;;;;;;5020893;28;19936;-66
2024/02/22 05:21:20;;;;;;;;;;;14.00;52.40;;;;;;5011513;28;20038;-66
2024/02/22 05:23:48;;;;;;;;;;;14.00;52.50;;;;;;5011337;28;19929;-67
2024/02/22 05:26:16;;;;;;;;;;;14.10;52.50;;;;;;5006710;28;19940;-66
2024/02/22 05:28:44;;;;;;;;;;;14.20;52.50;;;;;;5005364;28;19960;-66
2024/02/22 05:31:20;;;;;;;;;;;14.20;52.30;;;;;;5010231;28;19932;-66
2024/02/22 05:33:50;;;;;;;;;;;14.20;52.30;;;;;;5002406;28;22254;-67
2024/02/22 05:36:19;;;;;;;;;;;14.30;52.50;;;;;;5012796;28;19932;-66
2024/02/22 05:38:47;;;;;;;;;;;14.30;52.50;;;;;;5006861;28;19933;-67
2024/02/22 05:41:15;;;;;;;;;;;14.40;52.40;;;;;;5012293;28;19967;-69
2024/02/22 05:43:43;;;;;;;;;;;14.40;52.30;;;;;;5011680;28;20043;-67
2024/02/22 05:46:12;;;;;;;;;;;14.40;52.30;;;;;;5001792;28;20060;-65
2024/02/22 05:48:40;;;;;;;;;;;14.40;52.20;;;;;;5006852;28;19933;-63
2024/02/22 05:51:08;;;;;;;;;;;14.40;52.00;;;;;;5008442;28;19929;-64
2024/02/22 05:53:37;;;;;;;;;;;14.30;52.10;;;;;;5011466;28;19939;-63
2024/02/22 05:56:05;;;;;;;;;;;14.30;52.00;;;;;;5005341;28;20020;-64
2024/02/22 05:58:33;;;;;;;;;;;14.20;51.90;;;;;;5008184;28;19929;-64
2024/02/22 06:01:01;;;;;;;;;;;14.10;52.10;;;;;;5006480;28;19936;-63
2024/02/22 06:03:30;;;;;;;;;;;14.00;52.10;;;;;;5007212;28;19964;-65
2024/02/22 06:05:58;;;;;;;;;;;14.00;52.30;;;;;;5009374;28;20413;-64
2024/02/22 06:08:27;;;;;;;;;;;14.10;52.30;;;;;;5010082;28;20023;-66
2024/02/22 06:10:56;;;;;;;;;;;14.10;52.20;;;;;;5010055;28;19955;-64
2024/02/22 06:13:24;;;;;;;;;;;14.00;52.20;;;;;;5013320;28;19960;-65
2024/02/22 06:15:54;;;;;;;;;;;14.00;52.30;;;;;;5005975;28;21241;-64
2024/02/22 06:18:23;;;;;;;;;;;14.00;52.40;;;;;;5013896;28;20399;-64
2024/02/22 06:20:51;;;;;;;;;;;14.10;52.40;;;;;;5015998;28;20337;-65
2024/02/22 06:23:19;;;;;;;;;;;14.10;52.40;;;;;;5013242;28;19947;-64
2024/02/22 06:25:51;;;;;;;;;;;14.20;52.40;;;;;;5001713;28;19936;-55
2024/02/22 06:28:19;;;;;;;;;;;14.20;52.30;;;;;;5013399;28;19972;-56
2024/02/22 06:30:47;;;;;;;;;;;14.30;52.20;;;;;;5005749;28;19937;-54
2024/02/22 06:33:15;;;;;;;;;;;14.30;52.30;;;;;;5011938;28;19925;-55
2024/02/22 06:35:43;;;;;;;;;;;14.40;52.30;;;;;;5012197;28;19929;-54
2024/02/22 06:38:11;;;;;;;;;;;14.40;52.20;;;;;;5016791;28;19928;-52
2024/02/22 06:40:47;;;;;;;;;;;14.40;51.80;;;;;;5005059;28;19951;-53
2024/02/22 06:43:18;;;;;;;;;;;14.20;51.90;;;;;;5014213;28;19933;-54
2024/02/22 06:45:46;;;;;;;;;;;14.20;52.20;;;;;;5015520;28;19933;-51
2024/02/22 06:48:14;;;;;;;;;;;14.20;52.30;;;;;;5008594;28;20036;-55
2024/02/22 06:50:42;;;;;;;;;;;14.20;52.20;;;;;;5008713;28;20011;-55
2024/02/22 06:53:10;;;;;;;;;;;14.40;52.30;;;;;;5005940;28;19947;-55
2024/02/22 06:55:39;;;;;;;;;;;14.40;52.20;;;;;;5013622;28;19929;-57
2024/02/22 06:58:07;;;;;;;;;;;14.40;52.10;;;;;;5012030;28;19929;-56
2024/02/22 07:00:36;;;;;;;;;;;14.40;52.10;;;;;;5010766;28;19929;-59
2024/02/22 07:03:05;;;;;;;;;;;14.40;52.20;;;;;;5016942;28;20265;-53
2024/02/22 07:05:33;;;;;;;;;;;14.40;52.20;;;;;;5009797;28;19992;-56
2024/02/22 07:08:02;;;;;;;;;;;14.40;52.30;;;;;;5007612;28;20154;-55
2024/02/22 07:10:30;;;;;;;;;;;14.30;52.20;;;;;;5008801;28;19929;-59
2024/02/22 07:12:58;;;;;;;;;;;14.30;52.20;;;;;;5013191;28;20019;-56
2024/02/22 07:15:27;;;;;;;;;;;14.20;52.20;;;;;;5004310;28;19967;-57
2024/02/22 07:17:56;;;;;;;;;;;14.20;52.40;;;;;;5007467;28;19932;-55
2024/02/22 07:20:25;;;;;;;;;;;14.10;52.50;;;;;;5002722;28;19939;-58
2024/02/22 07:22:54;;;;;;;;;;;14.20;52.70;;;;;;5013209;28;19940;-54
2024/02/22 07:25:23;;;;;;;;;;;14.20;52.80;;;;;;5011585;28;19929;-63
2024/02/22 07:27:51;;;;;;;;;;;14.30;52.80;;;;;;5013611;28;20529;-58
2024/02/22 07:30:19;;;;;;;;;;;14.50;52.80;;;;;;5010256;28;20028;-58
2024/02/22 07:32:48;;;;;;;;;;;14.60;52.70;;;;;;5007451;28;20510;-59
2024/02/22 07:35:18;;;;;;;;;;;14.80;52.60;;;;;;5010201;28;20379;-55
2024/02/22 07:37:46;;;;;;;;;;;15.00;52.40;;;;;;5012706;28;19935;-58
2024/02/22 07:40:14;;;;;;;;;;;15.20;52.30;;;;;;5011720;28;19932;-55
2024/02/22 07:42:41;;;;;;;;;;;15.20;52.10;;;;;;5008586;28;20659;-59
2024/02/22 07:45:10;;;;;;;;;;;15.30;52.00;;;;;;5010371;28;19932;-54
2024/02/22 07:47:39;;;;;;;;;;;15.30;52.00;;;;;;5011635;28;20458;-55
2024/02/22 07:50:10;;;;;;;;;;;15.30;51.90;;;;;;5029773;28;19929;-58
2024/02/22 07:52:40;;;;;;;;;;;15.20;51.70;;;;;;5010904;28;19977;-54
2024/02/22 07:55:09;;;;;;;;;;;15.10;51.50;;;;;;5009689;28;20284;-52
2024/02/22 07:57:37;;;;;;;;;;;15.00;51.30;;;;;;5004618;28;20030;-60
2024/02/22 08:00:08;;;;;;;;;;;14.90;51.30;;;;;;5013409;28;20091;-58
2024/02/22 08:02:37;;;;;;;;;;;14.90;51.30;;;;;;5014293;28;20022;-56
2024/02/22 08:05:06;;;;;;;;;;;14.90;51.60;;;;;;5010335;28;19940;-59
2024/02/22 08:07:34;;;;;;;;;;;14.90;51.50;;;;;;5015719;28;19932;-51
2024/02/22 08:10:05;;;;;;;;;;;15.00;51.40;;;;;;5007652;28;19929;-54
2024/02/22 08:12:33;;;;;;;;;;;15.00;51.40;;;;;;5014728;28;19933;-55
2024/02/22 08:15:02;;;;;;;;;;;15.10;51.30;;;;;;5013273;28;20021;-57
2024/02/22 08:17:31;;;;;;;;;;;15.20;51.20;;;;;;5013378;28;19936;-58
2024/02/22 08:20:00;;;;;;;;;;;15.20;51.30;;;;;;5009434;28;19933;-55
2024/02/22 08:22:29;;;;;;;;;;;15.30;51.20;;;;;;5011825;28;19960;-57
2024/02/22 08:24:57;;;;;;;;;;;15.40;51.10;;;;;;5007347;28;19937;-56
2024/02/22 08:27:26;;;;;;;;;;;15.50;51.20;;;;;;5010425;28;19979;-58
2024/02/22 08:29:54;;;;;;;;;;;15.60;51.00;;;;;;5013262;28;20380;-54
2024/02/22 08:32:23;;;;;;;;;;;15.80;51.20;;;;;;5027066;28;19964;-58
2024/02/22 08:34:51;;;;;;;;;;;15.90;51.20;;;;;;5015320;28;19955;-60
2024/02/22 08:37:19;;;;;;;;;;;16.00;50.90;;;;;;5010035;28;19929;-54
2024/02/22 08:39:47;;;;;;;;;;;16.20;51.10;;;;;;5003362;28;20557;-58
2024/02/22 08:42:15;;;;;;;;;;;16.40;51.10;;;;;;5008588;28;19929;-54
2024/02/22 08:44:45;;;;;;;;;;;16.50;51.00;;;;;;5011987;28;19929;-58
2024/02/22 08:47:13;;;;;;;;;;;16.60;51.00;;;;;;5007679;28;20044;-51
2024/02/22 08:49:43;;;;;;;;;;;16.60;50.80;;;;;;5001850;28;19933;-57
2024/02/22 08:52:11;;;;;;;;;;;16.70;50.80;;;;;;5010628;28;19933;-57
2024/02/22 08:54:40;;;;;;;;;;;16.90;50.90;;;;;;5004939;28;19936;-55
2024/02/22 08:57:09;;;;;;;;;;;16.90;51.30;;;;;;5011705;28;19936;-59
2024/02/22 08:59:37;;;;;;;;;;;16.90;50.60;;;;;;5000023;28;20141;-55
2024/02/22 09:02:07;;;;;;;;;;;16.90;50.70;;;;;;5008479;28;19929;-58
2024/02/22 09:04:35;;;;;;;;;;;16.90;50.70;;;;;;5008679;28;19925;-55
2024/02/22 09:07:04;;;;;;;;;;;17.00;50.90;;;;;;5012517;28;19929;-57
2024/02/22 09:09:32;;;;;;;;;;;17.10;51.00;;;;;;5002195;28;19983;-55
2024/02/22 09:12:00;;;;;;;;;;;17.20;50.90;;;;;;5010709;28;19985;-58
2024/02/22 09:14:28;;;;;;;;;;;17.40;50.80;;;;;;5009527;28;20063;-58
2024/02/22 09:16:58;;;;;;;;;;;17.50;50.90;;;;;;5021567;28;19964;-55
2024/02/22 09:19:28;;;;;;;;;;;17.80;50.90;;;;;;5000549;28;19972;-57
2024/02/22 09:21:59;;;;;;;;;;;18.00;50.50;;;;;;5005789;28;20419;-58
2024/02/22 09:24:28;;;;;;;;;;;18.10;50.00;;;;;;5010642;28;19998;-58
2024/02/22 09:26:56;;;;;;;;;;;18.10;49.90;;;;;;5008121;28;20037;-59
2024/02/22 09:29:24;;;;;;;;;;;18.20;49.80;;;;;;4996351;28;19929;-57
2024/02/22 09:31:55;;;;;;;;;;;18.30;50.00;;;;;;5008069;28;19936;-57
2024/02/22 09:34:24;;;;;;;;;;;18.40;50.10;;;;;;5003545;28;19936;-59
2024/02/22 09:36:53;;;;;;;;;;;18.60;50.30;;;;;;5009131;28;20410;-55
2024/02/22 09:39:21;;;;;;;;;;;18.80;50.30;;;;;;5004109;28;20451;-57
2024/02/22 09:41:50;;;;;;;;;;;19.00;50.20;;;;;;5017387;28;19928;-56
2024/02/22 09:44:20;;;;;;;;;;;19.00;49.90;;;;;;5012425;28;20010;-61
2024/02/22 09:46:48;;;;;;;;;;;19.00;49.90;;;;;;5015595;28;20260;-58
2024/02/22 09:49:17;;;;;;;;;;;19.00;50.00;;;;;;5008675;28;19933;-57
2024/02/22 09:51:45;;;;;;;;;;;19.10;50.10;;;;;;5015048;28;19928;-55
2024/02/22 09:54:16;;;;;;;;;;;19.10;50.60;;;;;;5010115;28;20099;-57
2024/02/22 09:56:45;;;;;;;;;;;19.30;50.20;;;;;;5014170;28;19935;-58
2024/02/22 09:59:13;;;;;;;;;;;19.60;50.40;;;;;;5018737;28;19925;-55
2024/02/22 10:01:41;;;;;;;;;;;19.90;50.20;;;;;;5008077;28;20454;-63
2024/02/22 10:04:11;;;;;;;;;;;20.20;49.80;;;;;;5016141;28;19933;-55
2024/02/22 10:06:39;;;;;;;;;;;20.30;49.70;;;;;;5012973;28;19933;-54
2024/02/22 10:09:08;;;;;;;;;;;20.50;49.70;;;;;;5021184;28;20007;-54
2024/02/22 10:11:43;;;;;;;;;;;20.70;49.70;;;;;;5007490;28;19944;-59
2024/02/22 10:14:13;;;;;;;;;;;20.90;49.70;;;;;;5010976;28;20402;-58
2024/02/22 10:16:44;;;;;;;;;;;21.10;49.60;;;;;;5014449;28;20261;-55
2024/02/22 10:19:13;;;;;;;;;;;21.40;49.70;;;;;;5013705;28;19937;-58
2024/02/22 10:21:44;;;;;;;;;;;22.00;49.80;;;;;;5025477;28;20399;-59
2024/02/22 10:24:13;;;;;;;;;;;22.60;49.50;;;;;;5014656;28;20033;-59
2024/02/22 10:26:42;;;;;;;;;;;23.40;49.50;;;;;;5012364;28;19929;-58
2024/02/22 10:29:12;;;;;;;;;;;24.40;48.90;;;;;;5013766;28;20265;-58
2024/02/22 10:31:45;;;;;;;;;;;25.10;47.70;;;;;;5017310;28;20071;-56
2024/02/22 10:34:13;;;;;;;;;;;25.40;47.10;;;;;;5013208;28;19987;-59
2024/02/22 10:36:43;;;;;;;;;;;25.40;46.80;;;;;;5013459;28;19980;-58
2024/02/22 10:39:12;;;;;;;;;;;25.30;46.80;;;;;;5017551;28;19929;-63
2024/02/22 10:41:40;;;;;;;;;;;25.20;46.80;;;;;;5012564;28;19932;-60
2024/02/22 10:44:11;;;;;;;;;;;25.10;46.90;;;;;;5017156;28;19933;-58
2024/02/22 10:46:39;;;;;;;;;;;24.90;47.10;;;;;;5016678;28;19960;-56
2024/02/22 10:49:10;;;;;;;;;;;24.80;47.20;;;;;;5019996;28;19933;-58
2024/02/22 10:51:39;;;;;;;;;;;24.60;47.10;;;;;;5007856;28;21951;-57
2024/02/22 10:54:10;;;;;;;;;;;24.20;47.40;;;;;;5010926;28;19951;-58
2024/02/22 10:56:38;;;;;;;;;;;24.20;47.90;;;;;;5013305;28;20096;-59
2024/02/22 10:59:09;;;;;;;;;;;24.30;48.00;;;;;;5014337;28;19951;-55
2024/02/22 11:01:39;;;;;;;;;;;24.30;47.80;;;;;;5005156;28;19973;-61
2024/02/22 11:04:08;;;;;;;;;;;24.30;47.60;;;;;;5011599;28;20688;-57
2024/02/22 11:06:38;;;;;;;;;;;24.20;47.40;;;;;;5010214;28;19939;-57
2024/02/22 11:09:15;;;;;;;;;;;24.00;47.30;;;;;;5016754;28;20012;-58
2024/02/22 11:11:45;;;;;;;;;;;23.80;47.50;;;;;;5006531;28;20642;-60
2024/02/22 11:14:14;;;;;;;;;;;23.70;48.00;;;;;;5017873;28;19936;-57
2024/02/22 11:16:44;;;;;;;;;;;23.70;47.80;;;;;;5016269;28;20032;-59
2024/02/22 11:19:16;;;;;;;;;;;23.80;47.80;;;;;;5012598;28;19991;-59
2024/02/22 11:21:47;;;;;;;;;;;23.70;47.50;;;;;;5010296;28;19925;-55
2024/02/22 11:24:21;;;;;;;;;;;23.80;47.80;;;;;;5012093;28;20018;-56
2024/02/22 11:26:49;;;;;;;;;;;24.00;47.90;;;;;;5009467;28;19925;-55
2024/02/22 11:29:26;;;;;;;;;;;24.10;47.80;;;;;;5007023;28;20410;-52
2024/02/22 11:31:55;;;;;;;;;;;24.10;47.40;;;;;;5013873;28;19929;-57
2024/02/22 11:34:24;;;;;;;;;;;23.90;47.30;;;;;;5018028;28;19935;-57
2024/02/22 11:36:52;;;;;;;;;;;23.70;47.60;;;;;;5014046;28;19929;-56
2024/02/22 11:39:20;;;;;;;;;;;23.50;47.70;;;;;;5005851;28;20405;-56
2024/02/22 11:41:49;;;;;;;;;;;23.40;48.00;;;;;;5015956;28;19951;-60
2024/02/22 11:44:17;;;;;;;;;;;23.20;48.00;;;;;;5011597;28;20370;-55
2024/02/22 11:46:46;;;;;;;;;;;22.90;47.90;;;;;;5016137;28;19928;-57
2024/02/22 11:49:16;;;;;;;;;;;22.70;47.90;;;;;;5015204;28;20268;-59
2024/02/22 11:51:44;;;;;;;;;;;22.40;48.20;;;;;;5012210;28;19925;-55
2024/02/22 11:54:16;;;;;;;;;;;22.30;48.70;;;;;;5017520;28;20292;-55
2024/02/22 11:56:44;;;;;;;;;;;22.30;49.00;;;;;;5013006;28;19936;-52
2024/02/22 11:59:13;;;;;;;;;;;22.50;49.20;;;;;;5011004;28;20001;-58
2024/02/22 12:01:42;;;;;;;;;;;22.80;49.20;;;;;;5006611;28;19932;-59
2024/02/22 12:04:11;;;;;;;;;;;23.10;49.10;;;;;;5014607;28;19937;-56
2024/02/22 12:06:40;;;;;;;;;;;23.30;48.90;;;;;;5009455;28;19932;-57
2024/02/22 12:09:09;;;;;;;;;;;23.50;48.70;;;;;;5019843;28;20036;-60
2024/02/22 12:11:42;;;;;;;;;;;23.50;48.50;;;;;;5008298;28;20300;-56
2024/02/22 12:14:13;;;;;;;;;;;23.50;48.10;;;;;;5009531;28;20787;-58
2024/02/22 12:16:41;;;;;;;;;;;23.30;48.10;;;;;;5015274;28;19951;-56
2024/02/22 12:19:15;;;;;;;;;;;23.20;48.10;;;;;;5012359;28;20025;-55
2024/02/22 12:21:46;;;;;;;;;;;23.10;48.00;;;;;;5005030;28;19991;-57
2024/02/22 12:24:14;;;;;;;;;;;23.00;48.10;;;;;;5011799;28;19929;-57
2024/02/22 12:26:42;;;;;;;;;;;23.00;48.40;;;;;;5011341;28;19940;-58
2024/02/22 12:29:10;;;;;;;;;;;23.00;48.30;;;;;;5012311;28;20024;-57
2024/02/22 12:31:39;;;;;;;;;;;22.90;48.30;;;;;;5008072;28;20388;-62
2024/02/22 12:34:07;;;;;;;;;;;23.00;48.40;;;;;;5013337;28;19937;-56
2024/02/22 12:36:36;;;;;;;;;;;23.00;48.50;;;;;;5009771;28;19941;-57
2024/02/22 12:39:06;;;;;;;;;;;23.00;48.50;;;;;;5009244;28;20033;-53
2024/02/22 12:41:34;;;;;;;;;;;22.90;48.60;;;;;;5006241;28;19939;-54
2024/02/22 12:44:04;;;;;;;;;;;22.80;48.40;;;;;;5016381;28;20211;-58
2024/02/22 12:46:33;;;;;;;;;;;22.70;48.50;;;;;;5013180;28;20434;-57
2024/02/22 12:49:01;;;;;;;;;;;22.70;48.70;;;;;;5010894;28;20033;-57
2024/02/22 12:51:30;;;;;;;;;;;22.70;48.70;;;;;;5009695;28;20027;-58
2024/02/22 12:53:58;;;;;;;;;;;22.70;48.80;;;;;;4999865;28;19924;-56
2024/02/22 12:56:27;;;;;;;;;;;22.80;48.50;;;;;;5011996;28;19940;-56
2024/02/22 12:58:57;;;;;;;;;;;22.70;48.30;;;;;;5013993;28;19929;-57
2024/02/22 13:01:25;;;;;;;;;;;22.60;48.40;;;;;;5024961;28;19924;-56
2024/02/22 13:03:54;;;;;;;;;;;22.60;48.70;;;;;;5001940;28;20292;-55
2024/02/22 13:06:22;;;;;;;;;;;22.70;49.50;;;;;;5012142;28;19945;-59
2024/02/22 13:08:51;;;;;;;;;;;22.80;48.50;;;;;;5016446;28;19940;-59
2024/02/22 13:11:19;;;;;;;;;;;22.70;48.40;;;;;;5008491;28;20020;-59
2024/02/22 13:13:49;;;;;;;;;;;22.70;48.50;;;;;;5009926;28;19964;-60
2024/02/22 13:16:18;;;;;;;;;;;22.70;48.60;;;;;;5005022;28;19929;-57
2024/02/22 13:18:48;;;;;;;;;;;22.70;48.70;;;;;;5011596;28;20037;-55
2024/02/22 13:21:17;;;;;;;;;;;22.70;48.70;;;;;;5009171;28;20697;-56
2024/02/22 13:23:46;;;;;;;;;;;22.70;48.70;;;;;;5008701;28;19929;-58
2024/02/22 13:26:14;;;;;;;;;;;22.70;48.70;;;;;;5004194;28;19933;-56
2024/02/22 13:28:42;;;;;;;;;;;22.70;48.80;;;;;;5012142;28;19929;-57
2024/02/22 13:31:12;;;;;;;;;;;22.80;48.80;;;;;;5008938;28;19951;-57
2024/02/22 13:33:45;;;;;;;;;;;23.00;48.80;;;;;;5013012;28;19936;-55
2024/02/22 13:36:13;;;;;;;;;;;23.10;48.70;;;;;;5008506;28;19933;-58
2024/02/22 13:38:42;;;;;;;;;;;23.20;48.70;;;;;;5004507;28;19992;-56
2024/02/22 13:41:10;;;;;;;;;;;23.20;48.60;;;;;;5008760;28;20010;-57
2024/02/22 13:43:41;;;;;;;;;;;23.20;48.50;;;;;;5008533;28;20402;-58
2024/02/22 13:46:09;;;;;;;;;;;23.20;48.60;;;;;;5008045;28;20008;-54
2024/02/22 13:48:40;;;;;;;;;;;23.20;48.30;;;;;;5000904;28;21735;-56
2024/02/22 13:51:08;;;;;;;;;;;23.10;48.00;;;;;;5008195;28;20347;-57
2024/02/22 13:53:36;;;;;;;;;;;22.90;48.10;;;;;;5007455;28;19933;-59
2024/02/22 13:56:05;;;;;;;;;;;22.80;48.30;;;;;;5005917;28;19940;-56
2024/02/22 13:58:37;;;;;;;;;;;22.80;48.50;;;;;;5004687;28;19925;-61
2024/02/22 14:01:06;;;;;;;;;;;22.80;48.70;;;;;;5009702;28;19929;-57
2024/02/22 14:03:34;;;;;;;;;;;22.80;48.70;;;;;;5007957;28;20450;-54
2024/02/22 14:06:04;;;;;;;;;;;22.80;48.70;;;;;;5011123;28;20114;-58
2024/02/22 14:08:33;;;;;;;;;;;22.70;48.60;;;;;;5011798;28;19940;-54
2024/02/22 14:11:01;;;;;;;;;;;22.50;48.60;;;;;;5007911;28;19936;-58
2024/02/22 14:13:35;;;;;;;;;;;22.30;48.40;;;;;;5009236;28;20032;-54
2024/02/22 14:16:04;;;;;;;;;;;22.20;48.80;;;;;;5010650;28;20477;-55
2024/02/22 14:18:34;;;;;;;;;;;22.20;48.80;;;;;;5007832;28;19936;-59
2024/02/22 14:21:04;;;;;;;;;;;22.20;49.00;;;;;;5002743;28;20466;-57
2024/02/22 14:23:33;;;;;;;;;;;22.30;49.00;;;;;;5005602;28;20466;-61
2024/02/22 14:26:02;;;;;;;;;;;22.40;49.30;;;;;;5006867;28;19928;-55